Time;durP1;ratioP1;P1;durP2;ratioP2;P2;SDS_P1;SDS_P2;PMS_P1;PMS_P2;Temp;Humidity;BMP_temperature;BMP_pressure;BME280_temperature;BME280_humidity;BME280_pressure;Samples;Min_cycle;Max_cycle;Signal;HPM_P1;HPM_P2
2022/12/01 00:01:54;;;;;;;24.00;13.70;;;;;;;;;;5013911;28;20258;-81
2022/12/01 00:04:21;;;;;;;25.97;14.47;;;;;;;;;;5013573;28;20207;-83
2022/12/01 00:06:48;;;;;;;26.20;15.03;;;;;;;;;;5010220;28;20617;-83
2022/12/01 00:12:00;;;;;;;22.13;13.23;;;;;;;;;;4993540;28;20317;-83
2022/12/01 00:14:29;;;;;;;19.03;12.47;;;;;;;;;;4993493;28;20219;-83
2022/12/01 00:16:56;;;;;;;22.00;14.10;;;;;;;;;;4993108;28;20243;-83
2022/12/01 00:19:25;;;;;;;21.97;13.10;;;;;;;;;;4993423;28;20720;-82
2022/12/01 00:21:52;;;;;;;19.30;12.17;;;;;;;;;;4993480;28;20240;-82
2022/12/01 00:24:19;;;;;;;25.67;13.67;;;;;;;;;;4994212;28;20216;-82
2022/12/01 00:26:46;;;;;;;20.37;13.17;;;;;;;;;;4993273;28;20232;-83
2022/12/01 00:29:13;;;;;;;25.07;13.40;;;;;;;;;;4993625;28;20214;-82
2022/12/01 00:31:41;;;;;;;23.77;13.70;;;;;;;;;;4992786;28;20271;-82
2022/12/01 00:34:13;;;;;;;22.03;14.17;;;;;;;;;;4993527;28;20215;-82
2022/12/01 00:36:40;;;;;;;20.83;13.20;;;;;;;;;;4992384;28;20228;-82
2022/12/01 00:39:07;;;;;;;25.73;14.00;;;;;;;;;;4992711;28;20216;-82
2022/12/01 00:41:34;;;;;;;21.63;13.83;;;;;;;;;;4992310;28;20232;-82
2022/12/01 00:44:01;;;;;;;26.60;14.20;;;;;;;;;;4993116;28;20672;-82
2022/12/01 00:46:29;;;;;;;22.27;13.27;;;;;;;;;;4992354;28;20610;-82
2022/12/01 00:48:57;;;;;;;22.47;13.73;;;;;;;;;;4992615;28;20239;-82
2022/12/01 00:51:24;;;;;;;24.20;14.37;;;;;;;;;;4992263;28;20247;-82
2022/12/01 00:53:51;;;;;;;21.90;14.20;;;;;;;;;;4993108;28;20239;-83
2022/12/01 00:56:19;;;;;;;26.37;14.53;;;;;;;;;;4992508;28;20625;-82
2022/12/01 00:58:47;;;;;;;24.60;14.87;;;;;;;;;;4992410;28;20684;-83
2022/12/01 01:01:14;;;;;;;27.47;15.67;;;;;;;;;;4992782;28;20240;-83
2022/12/01 01:03:41;;;;;;;25.00;15.13;;;;;;;;;;4992803;28;20222;-83
2022/12/01 01:06:11;;;;;;;29.30;15.97;;;;;;;;;;4992273;28;20236;-82
2022/12/01 01:08:38;;;;;;;31.73;16.40;;;;;;;;;;4992444;28;20669;-83
2022/12/01 01:11:05;;;;;;;28.43;15.13;;;;;;;;;;4992303;28;20236;-82
2022/12/01 01:13:33;;;;;;;23.37;14.87;;;;;;;;;;4992907;28;20212;-83
2022/12/01 01:16:01;;;;;;;27.40;16.13;;;;;;;;;;4992450;28;20236;-82
2022/12/01 01:18:28;;;;;;;26.00;14.57;;;;;;;;;;4992783;28;20215;-82
2022/12/01 01:20:56;;;;;;;23.43;15.10;;;;;;;;;;4992383;28;20238;-82
2022/12/01 01:23:24;;;;;;;26.80;15.03;;;;;;;;;;4993080;28;20241;-83
2022/12/01 01:25:51;;;;;;;25.87;14.97;;;;;;;;;;4991588;28;20243;-81
2022/12/01 01:28:18;;;;;;;27.03;15.33;;;;;;;;;;4992693;28;20208;-82
2022/12/01 01:30:45;;;;;;;29.00;16.60;;;;;;;;;;4992004;28;20235;-82
2022/12/01 01:33:13;;;;;;;25.53;15.27;;;;;;;;;;4992098;28;20228;-82
2022/12/01 01:35:40;;;;;;;24.20;14.30;;;;;;;;;;4992214;28;20242;-83
2022/12/01 01:38:07;;;;;;;27.23;15.37;;;;;;;;;;4992562;28;20204;-82
2022/12/01 01:40:35;;;;;;;28.50;16.10;;;;;;;;;;4992432;28;20236;-83
2022/12/01 01:43:02;;;;;;;24.60;14.83;;;;;;;;;;4992757;28;20231;-83
2022/12/01 01:45:30;;;;;;;26.10;15.63;;;;;;;;;;4992211;28;20259;-83
2022/12/01 01:47:59;;;;;;;25.07;15.63;;;;;;;;;;4992281;28;20224;-82
2022/12/01 01:50:28;;;;;;;25.60;15.60;;;;;;;;;;4991724;28;20240;-82
2022/12/01 01:52:58;;;;;;;27.17;16.70;;;;;;;;;;4992254;28;20242;-83
2022/12/01 01:55:25;;;;;;;23.30;15.13;;;;;;;;;;4992128;28;20580;-83
2022/12/01 01:57:54;;;;;;;23.50;15.03;;;;;;;;;;4991794;28;20620;-83
2022/12/01 02:00:21;;;;;;;26.37;15.17;;;;;;;;;;4990194;28;20231;-82
2022/12/01 02:02:49;;;;;;;23.43;15.13;;;;;;;;;;4987833;28;20311;-82
2022/12/01 02:05:18;;;;;;;26.97;16.03;;;;;;;;;;4991003;28;20236;-82
2022/12/01 02:07:47;;;;;;;24.80;15.23;;;;;;;;;;4991332;28;20228;-82
2022/12/01 02:10:21;;;;;;;28.17;15.30;;;;;;;;;;4991489;28;20252;-82
2022/12/01 02:12:54;;;;;;;26.67;15.60;;;;;;;;;;4992059;28;20232;-82
2022/12/01 02:15:27;;;;;;;26.70;16.00;;;;;;;;;;4991480;28;20703;-82
2022/12/01 02:17:59;;;;;;;24.23;14.67;;;;;;;;;;4991950;28;20572;-82
2022/12/01 02:20:43;;;;;;;28.60;15.17;;;;;;;;;;4992270;28;20231;-83
2022/12/01 02:23:25;;;;;;;21.93;15.00;;;;;;;;;;4992173;28;20239;-83
2022/12/01 02:25:56;;;;;;;23.60;15.30;;;;;;;;;;4991377;28;20699;-83
2022/12/01 02:28:31;;;;;;;24.07;15.07;;;;;;;;;;4972122;28;20232;-83
2022/12/01 02:31:01;;;;;;;24.83;15.33;;;;;;;;;;4972190;28;20258;-82
2022/12/01 02:33:33;;;;;;;28.03;15.27;;;;;;;;;;4972705;28;20197;-83
2022/12/01 02:36:02;;;;;;;24.73;15.83;;;;;;;;;;4972337;28;20236;-82
2022/12/01 02:38:31;;;;;;;26.90;14.67;;;;;;;;;;4974398;28;20685;-83
2022/12/01 02:41:01;;;;;;;23.53;15.43;;;;;;;;;;4975833;28;20247;-82
2022/12/01 02:43:30;;;;;;;26.83;15.07;;;;;;;;;;4976438;28;20681;-82
2022/12/01 02:46:00;;;;;;;25.33;15.43;;;;;;;;;;4975710;28;20243;-82
2022/12/01 02:48:29;;;;;;;26.80;15.57;;;;;;;;;;4976175;28;20594;-81
2022/12/01 02:50:58;;;;;;;26.93;16.13;;;;;;;;;;4975470;28;20244;-82
2022/12/01 02:53:25;;;;;;;21.63;14.93;;;;;;;;;;4975950;28;20211;-83
2022/12/01 02:55:54;;;;;;;24.13;15.53;;;;;;;;;;4974966;28;20260;-82
2022/12/01 02:58:21;;;;;;;24.87;15.93;;;;;;;;;;4975405;28;20220;-82
2022/12/01 03:00:55;;;;;;;21.67;14.53;;;;;;;;;;4974964;28;20705;-82
2022/12/01 03:03:31;;;;;;;27.33;15.93;;;;;;;;;;4975436;28;20596;-82
2022/12/01 03:06:02;;;;;;;30.30;16.43;;;;;;;;;;4975214;28;20732;-83
2022/12/01 03:08:33;;;;;;;29.70;16.57;;;;;;;;;;4975764;28;20223;-82
2022/12/01 03:11:00;;;;;;;26.73;16.03;;;;;;;;;;4974963;28;20233;-82
2022/12/01 03:13:33;;;;;;;25.80;15.80;;;;;;;;;;4975680;28;20204;-82
2022/12/01 03:16:03;;;;;;;29.70;16.13;;;;;;;;;;4975177;28;20247;-83
2022/12/01 03:18:35;;;;;;;27.30;16.07;;;;;;;;;;4975519;28;20215;-83
2022/12/01 03:21:04;;;;;;;29.03;16.47;;;;;;;;;;4974645;28;20243;-82
2022/12/01 03:23:34;;;;;;;27.80;16.10;;;;;;;;;;4975913;28;20257;-82
2022/12/01 03:26:05;;;;;;;23.57;15.20;;;;;;;;;;4975585;28;20262;-83
2022/12/01 03:28:35;;;;;;;24.87;14.90;;;;;;;;;;4994840;28;20219;-83
2022/12/01 03:31:04;;;;;;;25.13;15.03;;;;;;;;;;4994565;28;20235;-83
2022/12/01 03:33:33;;;;;;;26.50;16.63;;;;;;;;;;4994789;28;20684;-82
2022/12/01 03:36:03;;;;;;;25.07;14.23;;;;;;;;;;4994537;28;20251;-83
2022/12/01 03:38:30;;;;;;;23.27;14.20;;;;;;;;;;4994814;28;20198;-82
2022/12/01 03:40:59;;;;;;;26.43;14.93;;;;;;;;;;4994255;28;20253;-82
2022/12/01 03:43:28;;;;;;;23.93;15.47;;;;;;;;;;4995092;28;20231;-83
2022/12/01 03:45:57;;;;;;;31.67;15.30;;;;;;;;;;4994052;28;20596;-83
2022/12/01 03:48:24;;;;;;;26.97;15.90;;;;;;;;;;4993744;28;20224;-82
2022/12/01 03:50:55;;;;;;;24.37;14.93;;;;;;;;;;4992658;28;20612;-83
2022/12/01 03:53:26;;;;;;;26.43;15.43;;;;;;;;;;4994391;28;20208;-82
2022/12/01 03:55:56;;;;;;;25.33;14.47;;;;;;;;;;4993772;28;20246;-83
2022/12/01 03:58:25;;;;;;;27.37;14.50;;;;;;;;;;4994105;28;20230;-82
2022/12/01 04:00:56;;;;;;;25.67;15.23;;;;;;;;;;4993919;28;20239;-82
2022/12/01 04:03:24;;;;;;;28.23;14.17;;;;;;;;;;4994381;28;20522;-83
2022/12/01 04:05:52;;;;;;;24.53;14.73;;;;;;;;;;4993798;28;20236;-82
2022/12/01 04:08:19;;;;;;;26.77;13.67;;;;;;;;;;4994037;28;20234;-82
2022/12/01 04:10:47;;;;;;;21.47;14.37;;;;;;;;;;4993519;28;20242;-83
2022/12/01 04:13:21;;;;;;;22.37;14.30;;;;;;;;;;4994222;28;20224;-82
2022/12/01 04:15:49;;;;;;;22.57;12.90;;;;;;;;;;4993485;28;20275;-82
2022/12/01 04:18:16;;;;;;;23.53;12.63;;;;;;;;;;4993618;28;20204;-83
2022/12/01 04:20:43;;;;;;;22.83;13.50;;;;;;;;;;4993319;28;20318;-83
2022/12/01 04:23:58;;;;;;;22.70;13.07;;;;;;;;;;4993795;28;20235;-82
2022/12/01 04:26:00;;;;;;;22.53;13.40;;;;;;;;;;4993035;28;20228;-83
2022/12/01 04:28:27;;;;;;;22.90;12.80;;;;;;;;;;4993693;28;20239;-84
2022/12/01 04:30:54;;;;;;;24.50;14.23;;;;;;;;;;4999641;28;20726;-84
2022/12/01 04:33:21;;;;;;;21.17;13.03;;;;;;;;;;5013439;28;20574;-83
2022/12/01 04:35:56;;;;;;;19.60;13.33;;;;;;;;;;5012799;28;20230;-83
2022/12/01 04:38:23;;;;;;;23.43;12.53;;;;;;;;;;5013216;28;20207;-83
2022/12/01 04:40:50;;;;;;;21.50;13.67;;;;;;;;;;5005684;28;20730;-83
2022/12/01 04:43:19;;;;;;;23.17;13.57;;;;;;;;;;5013002;28;20231;-82
2022/12/01 04:45:46;;;;;;;20.13;13.83;;;;;;;;;;4999510;28;20242;-82
2022/12/01 04:48:13;;;;;;;20.53;13.30;;;;;;;;;;4983840;28;20224;-83
2022/12/01 04:50:41;;;;;;;20.50;13.43;;;;;;;;;;4982299;28;20243;-82
2022/12/01 04:53:08;;;;;;;23.60;12.57;;;;;;;;;;4984116;28;20227;-83
2022/12/01 04:55:38;;;;;;;22.63;13.47;;;;;;;;;;4992594;28;20243;-83
2022/12/01 04:58:05;;;;;;;20.70;13.07;;;;;;;;;;4993090;28;20206;-83
2022/12/01 05:00:34;;;;;;;20.20;13.37;;;;;;;;;;4990202;28;20232;-84
2022/12/01 05:03:01;;;;;;;20.93;12.50;;;;;;;;;;4983540;28;20232;-84
2022/12/01 05:05:28;;;;;;;24.93;13.70;;;;;;;;;;4992482;28;20617;-83
2022/12/01 05:07:55;;;;;;;22.07;13.27;;;;;;;;;;4992653;28;20227;-82
2022/12/01 05:10:22;;;;;;;23.07;13.00;;;;;;;;;;4991988;28;20231;-82
2022/12/01 05:12:49;;;;;;;20.87;13.20;;;;;;;;;;4990324;28;20228;-83
2022/12/01 05:15:17;;;;;;;22.53;13.30;;;;;;;;;;4991432;28;20247;-83
2022/12/01 05:17:45;;;;;;;22.13;14.37;;;;;;;;;;4992100;28;20676;-83
2022/12/01 05:23:00;;;;;;;24.17;13.97;;;;;;;;;;4992792;28;20926;-85
2022/12/01 05:25:27;;;;;;;22.23;13.17;;;;;;;;;;4992543;28;20231;-86
2022/12/01 05:27:54;;;;;;;23.03;14.13;;;;;;;;;;4992497;28;20241;-83
2022/12/01 05:30:21;;;;;;;28.90;14.20;;;;;;;;;;4991986;28;20235;-82
2022/12/01 05:32:50;;;;;;;21.17;13.03;;;;;;;;;;4991934;28;20735;-82
2022/12/01 05:35:17;;;;;;;24.00;13.43;;;;;;;;;;4992623;28;20232;-82
2022/12/01 05:37:44;;;;;;;29.13;14.30;;;;;;;;;;4991769;28;20204;-84
2022/12/01 05:40:11;;;;;;;24.00;13.30;;;;;;;;;;4991779;28;20431;-83
2022/12/01 05:42:39;;;;;;;25.27;13.50;;;;;;;;;;4992198;28;20227;-83
2022/12/01 05:45:06;;;;;;;26.03;13.40;;;;;;;;;;5011060;28;20232;-82
2022/12/01 05:47:33;;;;;;;22.20;14.63;;;;;;;;;;4986876;28;20220;-83
2022/12/01 05:50:02;;;;;;;25.10;13.57;;;;;;;;;;4991348;28;20709;-83
2022/12/01 05:52:29;;;;;;;22.03;14.57;;;;;;;;;;4992432;28;20235;-82
2022/12/01 05:54:56;;;;;;;21.73;13.57;;;;;;;;;;4991588;28;20223;-83
2022/12/01 05:57:23;;;;;;;21.40;13.80;;;;;;;;;;4991975;28;20207;-83
2022/12/01 05:59:50;;;;;;;23.50;13.73;;;;;;;;;;4991523;28;20219;-83
2022/12/01 06:02:17;;;;;;;21.53;13.20;;;;;;;;;;4992135;28;20759;-82
2022/12/01 06:04:44;;;;;;;27.30;13.20;;;;;;;;;;4991550;28;20248;-82
2022/12/01 06:07:13;;;;;;;20.23;12.30;;;;;;;;;;4991654;28;20226;-82
2022/12/01 06:09:40;;;;;;;18.70;11.43;;;;;;;;;;4992263;28;20215;-82
2022/12/01 06:12:07;;;;;;;20.90;12.57;;;;;;;;;;4991983;28;20242;-82
2022/12/01 06:14:34;;;;;;;17.63;11.83;;;;;;;;;;4995819;28;20211;-82
2022/12/01 06:17:02;;;;;;;17.23;11.47;;;;;;;;;;4994433;28;20250;-82
2022/12/01 06:19:30;;;;;;;19.37;12.17;;;;;;;;;;4995632;28;20226;-82
2022/12/01 06:21:57;;;;;;;18.73;12.13;;;;;;;;;;4994844;28;20337;-82
2022/12/01 06:24:25;;;;;;;20.70;12.03;;;;;;;;;;4995780;28;20222;-82
2022/12/01 06:26:52;;;;;;;17.67;11.93;;;;;;;;;;4995006;28;20235;-82
2022/12/01 06:29:19;;;;;;;18.47;12.37;;;;;;;;;;4995470;28;20232;-82
2022/12/01 06:31:47;;;;;;;20.10;11.87;;;;;;;;;;4995003;28;20251;-81
2022/12/01 06:34:14;;;;;;;15.47;10.73;;;;;;;;;;4995701;28;20580;-82
2022/12/01 06:36:41;;;;;;;16.27;11.10;;;;;;;;;;4994876;28;20273;-81
2022/12/01 06:39:08;;;;;;;18.07;11.10;;;;;;;;;;4995324;28;20200;-83
2022/12/01 06:41:37;;;;;;;13.87;10.07;;;;;;;;;;4994068;28;20243;-83
2022/12/01 06:44:05;;;;;;;13.93;10.97;;;;;;;;;;4995618;28;20191;-83
2022/12/01 06:46:32;;;;;;;16.80;11.20;;;;;;;;;;4994637;28;20735;-82
2022/12/01 06:48:59;;;;;;;17.03;11.90;;;;;;;;;;4994698;28;20711;-82
2022/12/01 06:51:26;;;;;;;14.73;10.40;;;;;;;;;;4994442;28;20241;-82
2022/12/01 06:53:54;;;;;;;14.90;10.10;;;;;;;;;;4995032;28;20200;-82
2022/12/01 06:56:21;;;;;;;15.83;10.33;;;;;;;;;;4994832;28;20301;-82
2022/12/01 06:58:51;;;;;;;15.43;10.67;;;;;;;;;;4995139;28;20294;-82
2022/12/01 07:01:18;;;;;;;15.37;10.13;;;;;;;;;;4994500;28;20243;-82
2022/12/01 07:03:48;;;;;;;17.83;11.07;;;;;;;;;;4995082;28;20211;-82
2022/12/01 07:06:15;;;;;;;17.50;11.13;;;;;;;;;;4994404;28;20774;-82
2022/12/01 07:08:42;;;;;;;14.93;10.70;;;;;;;;;;4994722;28;20236;-82
2022/12/01 07:11:11;;;;;;;15.17;10.70;;;;;;;;;;4994323;28;20248;-82
2022/12/01 07:13:39;;;;;;;15.87;10.20;;;;;;;;;;4994431;28;20829;-82
2022/12/01 07:16:08;;;;;;;13.43;9.70;;;;;;;;;;4994086;28;20243;-82
2022/12/01 07:18:37;;;;;;;17.57;10.60;;;;;;;;;;4991603;28;20211;-82
2022/12/01 07:21:05;;;;;;;16.93;11.20;;;;;;;;;;4984543;28;20243;-82
2022/12/01 07:23:33;;;;;;;14.63;10.73;;;;;;;;;;4995003;28;20267;-82
2022/12/01 07:26:00;;;;;;;15.30;10.73;;;;;;;;;;4975484;28;20240;-82
2022/12/01 07:28:28;;;;;;;14.93;10.10;;;;;;;;;;4994436;28;20235;-82
2022/12/01 07:30:55;;;;;;;16.43;11.23;;;;;;;;;;4993801;28;20239;-82
2022/12/01 07:33:23;;;;;;;14.73;10.53;;;;;;;;;;4994278;28;20215;-82
2022/12/01 07:35:53;;;;;;;17.93;11.17;;;;;;;;;;4993494;28;20451;-82
2022/12/01 07:38:20;;;;;;;14.40;10.23;;;;;;;;;;4994207;28;20204;-81
2022/12/01 07:40:47;;;;;;;13.77;9.53;;;;;;;;;;4993877;28;20232;-82
2022/12/01 07:43:15;;;;;;;13.73;10.17;;;;;;;;;;4994507;28;20235;-82
2022/12/01 07:45:42;;;;;;;17.13;10.30;;;;;;;;;;4994183;28;20238;-82
2022/12/01 07:48:09;;;;;;;14.70;10.20;;;;;;;;;;4994391;28;20235;-82
2022/12/01 07:50:37;;;;;;;15.13;9.60;;;;;;;;;;4993948;28;20240;-83
2022/12/01 07:53:04;;;;;;;15.23;9.73;;;;;;;;;;4993567;28;20242;-82
2022/12/01 07:55:32;;;;;;;13.17;9.87;;;;;;;;;;4993411;28;20752;-82
2022/12/01 07:58:00;;;;;;;13.60;9.63;;;;;;;;;;4993649;28;20200;-82
2022/12/01 08:00:27;;;;;;;13.53;9.40;;;;;;;;;;4993271;28;20238;-82
2022/12/01 08:02:54;;;;;;;13.60;9.47;;;;;;;;;;5012851;28;20719;-82
2022/12/01 08:05:21;;;;;;;12.43;9.27;;;;;;;;;;5012549;28;20241;-82
2022/12/01 08:07:50;;;;;;;15.63;9.87;;;;;;;;;;5012677;28;20216;-82
2022/12/01 08:10:17;;;;;;;15.97;9.97;;;;;;;;;;5012418;28;20737;-82
2022/12/01 08:12:47;;;;;;;15.43;10.37;;;;;;;;;;5010646;28;20231;-82
2022/12/01 08:15:14;;;;;;;15.17;10.17;;;;;;;;;;4973764;28;20233;-82
2022/12/01 08:17:41;;;;;;;14.67;10.40;;;;;;;;;;4984457;28;20258;-81
2022/12/01 08:20:09;;;;;;;14.67;10.13;;;;;;;;;;4986021;28;20266;-80
2022/12/01 08:22:36;;;;;;;15.97;10.90;;;;;;;;;;4993484;28;20232;-81
2022/12/01 08:25:04;;;;;;;16.43;10.47;;;;;;;;;;4977754;28;20244;-81
2022/12/01 08:27:32;;;;;;;15.97;9.20;;;;;;;;;;4985490;28;20694;-81
2022/12/01 08:29:59;;;;;;;13.63;10.13;;;;;;;;;;4972952;28;20241;-81
2022/12/01 08:32:28;;;;;;;16.20;10.20;;;;;;;;;;4974329;28;20253;-81
2022/12/01 08:34:55;;;;;;;15.20;10.20;;;;;;;;;;4992012;28;20560;-81
2022/12/01 08:37:22;;;;;;;13.47;9.40;;;;;;;;;;4992524;28;20667;-82
2022/12/01 08:39:49;;;;;;;13.83;9.57;;;;;;;;;;4992245;28;20215;-81
2022/12/01 08:42:18;;;;;;;14.03;9.23;;;;;;;;;;4992731;28;20224;-81
2022/12/01 08:44:45;;;;;;;13.90;9.53;;;;;;;;;;4992603;28;20588;-82
2022/12/01 08:47:12;;;;;;;14.73;9.67;;;;;;;;;;4992747;28;20215;-81
2022/12/01 08:49:39;;;;;;;14.03;9.60;;;;;;;;;;4992767;28;20232;-81
2022/12/01 08:52:06;;;;;;;13.50;8.53;;;;;;;;;;4992290;28;20254;-82
2022/12/01 08:54:33;;;;;;;14.63;9.73;;;;;;;;;;4992657;28;20212;-81
2022/12/01 08:57:00;;;;;;;15.30;10.20;;;;;;;;;;4991949;28;20240;-81
2022/12/01 08:59:29;;;;;;;13.43;9.60;;;;;;;;;;4992587;28;20211;-82
2022/12/01 09:01:56;;;;;;;15.53;10.13;;;;;;;;;;4992338;28;20704;-82
2022/12/01 09:04:24;;;;;;;14.10;10.13;;;;;;;;;;4992533;28;20215;-82
2022/12/01 09:06:52;;;;;;;16.43;11.13;;;;;;;;;;4991813;28;20245;-82
2022/12/01 09:09:20;;;;;;;15.47;10.67;;;;;;;;;;4991997;28;20228;-81
2022/12/01 09:11:47;;;;;;;14.00;10.30;;;;;;;;;;4991971;28;20239;-84
2022/12/01 09:14:15;;;;;;;15.20;10.47;;;;;;;;;;4992392;28;20212;-81
2022/12/01 09:16:44;;;;;;;16.67;10.97;;;;;;;;;;4991746;28;20839;-81
2022/12/01 09:19:12;;;;;;;17.10;11.00;;;;;;;;;;4991987;28;20239;-80
2022/12/01 09:21:39;;;;;;;14.90;9.60;;;;;;;;;;4991665;28;20240;-81
2022/12/01 09:24:07;;;;;;;19.33;11.73;;;;;;;;;;4991928;28;20208;-82
2022/12/01 09:26:34;;;;;;;15.97;10.33;;;;;;;;;;4991564;28;20228;-81
2022/12/01 09:29:02;;;;;;;18.33;11.53;;;;;;;;;;4992236;28;20238;-82
2022/12/01 09:31:29;;;;;;;15.03;10.17;;;;;;;;;;4989039;28;20251;-82
2022/12/01 09:33:58;;;;;;;14.33;9.77;;;;;;;;;;4991331;28;20204;-82
2022/12/01 09:36:26;;;;;;;16.97;11.50;;;;;;;;;;4991872;28;20712;-81
2022/12/01 09:38:53;;;;;;;15.07;10.43;;;;;;;;;;4992179;28;20570;-82
2022/12/01 09:41:23;;;;;;;16.00;10.67;;;;;;;;;;4991921;28;20259;-82
2022/12/01 09:43:54;;;;;;;13.43;9.27;;;;;;;;;;4992350;28;20215;-83
2022/12/01 09:46:23;;;;;;;14.87;10.30;;;;;;;;;;4991833;28;20517;-83
2022/12/01 09:48:52;;;;;;;15.90;10.27;;;;;;;;;;4990779;28;20730;-83
2022/12/01 09:51:21;;;;;;;17.30;10.33;;;;;;;;;;4991834;28;20242;-82
2022/12/01 09:53:49;;;;;;;16.33;10.13;;;;;;;;;;4992374;28;20188;-81
2022/12/01 09:56:20;;;;;;;13.70;10.33;;;;;;;;;;4991244;28;20239;-82
2022/12/01 09:58:48;;;;;;;15.33;10.40;;;;;;;;;;4991301;28;20598;-82
2022/12/01 10:01:17;;;;;;;17.77;11.37;;;;;;;;;;4991011;28;20239;-82
2022/12/01 10:03:47;;;;;;;15.93;10.50;;;;;;;;;;4991448;28;20212;-82
2022/12/01 10:06:18;;;;;;;13.53;10.07;;;;;;;;;;4991017;28;20262;-81
2022/12/01 10:08:51;;;;;;;14.43;9.80;;;;;;;;;;4991248;28;20615;-82
2022/12/01 10:11:24;;;;;;;14.87;10.00;;;;;;;;;;4990812;28;20239;-82
2022/12/01 10:13:52;;;;;;;17.63;10.43;;;;;;;;;;4991416;28;20227;-82
2022/12/01 10:16:25;;;;;;;15.50;10.50;;;;;;;;;;4991030;28;20246;-83
2022/12/01 10:18:55;;;;;;;14.80;10.40;;;;;;;;;;4990595;28;20211;-83
2022/12/01 10:21:31;;;;;;;17.27;10.47;;;;;;;;;;4990839;28;20247;-82
2022/12/01 10:24:10;;;;;;;16.17;10.27;;;;;;;;;;4991058;28;20200;-83
2022/12/01 10:26:43;;;;;;;15.57;10.60;;;;;;;;;;4990463;28;20602;-82
2022/12/01 10:29:12;;;;;;;14.10;9.93;;;;;;;;;;4990726;28;20223;-83
2022/12/01 10:31:43;;;;;;;13.30;9.20;;;;;;;;;;4990539;28;20243;-83
2022/12/01 10:34:12;;;;;;;15.43;10.60;;;;;;;;;;4991290;28;20238;-83
2022/12/01 10:36:39;;;;;;;15.70;9.53;;;;;;;;;;4990528;28;20294;-84
2022/12/01 10:39:14;;;;;;;14.87;9.30;;;;;;;;;;4990675;28;20207;-82
2022/12/01 10:41:41;;;;;;;11.43;8.63;;;;;;;;;;4990519;28;20243;-83
2022/12/01 10:44:09;;;;;;;14.17;9.30;;;;;;;;;;4991167;28;20219;-82
2022/12/01 10:46:40;;;;;;;15.73;9.97;;;;;;;;;;4990731;28;20236;-82
2022/12/01 10:49:08;;;;;;;19.70;10.20;;;;;;;;;;4990529;28;20310;-83
2022/12/01 10:51:46;;;;;;;14.60;9.43;;;;;;;;;;4990322;28;20732;-83
2022/12/01 10:54:14;;;;;;;12.50;8.87;;;;;;;;;;4991192;28;20192;-83
2022/12/01 10:56:44;;;;;;;12.80;8.83;;;;;;;;;;4990704;28;20610;-82
2022/12/01 10:59:22;;;;;;;13.17;10.40;;;;;;;;;;4992497;28;20203;-83
2022/12/01 11:01:49;;;;;;;14.37;8.77;;;;;;;;;;4994156;28;20241;-83
2022/12/01 11:04:25;;;;;;;11.30;8.00;;;;;;;;;;4994517;28;20711;-83
2022/12/01 11:06:52;;;;;;;13.97;9.30;;;;;;;;;;4994054;28;20654;-81
2022/12/01 11:09:22;;;;;;;12.37;8.53;;;;;;;;;;4994228;28;20692;-83
2022/12/01 11:11:55;;;;;;;15.43;9.83;;;;;;;;;;4993775;28;20236;-82
2022/12/01 11:14:23;;;;;;;13.13;9.10;;;;;;;;;;4994867;28;20204;-82
2022/12/01 11:16:52;;;;;;;13.33;9.33;;;;;;;;;;4993969;28;20247;-82
2022/12/01 11:19:28;;;;;;;10.67;8.17;;;;;;;;;;4994224;28;20228;-83
2022/12/01 11:21:56;;;;;;;13.07;9.33;;;;;;;;;;4990020;28;20232;-83
2022/12/01 11:24:34;;;;;;;15.90;9.43;;;;;;;;;;4982593;28;20243;-82
2022/12/01 11:27:01;;;;;;;11.30;8.03;;;;;;;;;;4990946;28;20228;-82
2022/12/01 11:29:31;;;;;;;12.60;8.13;;;;;;;;;;4980170;28;20291;-82
2022/12/01 11:32:00;;;;;;;12.37;8.87;;;;;;;;;;4983944;28;20247;-83
2022/12/01 11:34:29;;;;;;;12.33;8.40;;;;;;;;;;4995133;28;20200;-82
2022/12/01 11:36:57;;;;;;;14.27;8.27;;;;;;;;;;4998360;28;20247;-83
2022/12/01 11:39:27;;;;;;;12.90;8.37;;;;;;;;;;4994513;28;20191;-82
2022/12/01 11:41:57;;;;;;;16.13;8.93;;;;;;;;;;4994285;28;20720;-83
2022/12/01 11:44:25;;;;;;;17.90;9.53;;;;;;;;;;4994908;28;20218;-81
2022/12/01 11:46:52;;;;;;;16.13;9.23;;;;;;;;;;5002406;28;20234;-83
2022/12/01 11:49:21;;;;;;;13.30;9.17;;;;;;;;;;4996857;28;20228;-83
2022/12/01 11:51:48;;;;;;;15.83;9.27;;;;;;;;;;4974851;28;20240;-84
2022/12/01 11:54:17;;;;;;;14.07;9.30;;;;;;;;;;4996242;28;20220;-82
2022/12/01 11:56:45;;;;;;;15.20;9.03;;;;;;;;;;5010386;28;20231;-82
2022/12/01 11:59:15;;;;;;;16.73;10.27;;;;;;;;;;5009258;28;20199;-82
2022/12/01 12:01:51;;;;;;;14.53;9.57;;;;;;;;;;4989804;28;20244;-82
2022/12/01 12:04:24;;;;;;;13.30;9.00;;;;;;;;;;4994837;28;20187;-82
2022/12/01 12:06:55;;;;;;;14.13;9.00;;;;;;;;;;4993951;28;20236;-82
2022/12/01 12:09:28;;;;;;;12.77;8.40;;;;;;;;;;4994424;28;20216;-82
2022/12/01 12:12:01;;;;;;;14.80;9.33;;;;;;;;;;4986074;28;20234;-82
2022/12/01 12:14:34;;;;;;;16.23;9.37;;;;;;;;;;4994489;28;20192;-82
2022/12/01 12:17:11;;;;;;;14.00;9.17;;;;;;;;;;4993871;28;20236;-82
2022/12/01 12:19:47;;;;;;;12.67;8.03;;;;;;;;;;4993813;28;20660;-82
2022/12/01 12:22:19;;;;;;;13.87;9.00;;;;;;;;;;4976029;28;20228;-82
2022/12/01 12:24:52;;;;;;;13.33;9.07;;;;;;;;;;4983577;28;20196;-82
2022/12/01 12:27:22;;;;;;;16.27;9.60;;;;;;;;;;4994145;28;20251;-82
2022/12/01 12:29:57;;;;;;;15.60;9.13;;;;;;;;;;4992746;28;20236;-82
2022/12/01 12:32:36;;;;;;;15.03;8.90;;;;;;;;;;4993465;28;20233;-82
2022/12/01 12:35:09;;;;;;;14.03;9.40;;;;;;;;;;4984869;28;20239;-82
2022/12/01 12:37:40;;;;;;;15.80;10.37;;;;;;;;;;4984056;28;20208;-82
2022/12/01 12:40:24;;;;;;;14.53;9.33;;;;;;;;;;4993500;28;20255;-82
2022/12/01 12:42:57;;;;;;;14.40;8.83;;;;;;;;;;4982671;28;20239;-83
2022/12/01 12:45:27;;;;;;;14.13;9.50;;;;;;;;;;4993212;28;20238;-82
2022/12/01 12:48:05;;;;;;;12.70;8.93;;;;;;;;;;4990992;28;20212;-83
2022/12/01 12:50:36;;;;;;;16.43;9.57;;;;;;;;;;4992209;28;20249;-82
2022/12/01 12:53:04;;;;;;;14.77;9.83;;;;;;;;;;4992388;28;20243;-82
2022/12/01 12:55:34;;;;;;;15.63;9.60;;;;;;;;;;4992036;28;20323;-82
2022/12/01 12:58:03;;;;;;;17.03;10.40;;;;;;;;;;4992510;28;20218;-81
2022/12/01 13:00:31;;;;;;;12.77;8.43;;;;;;;;;;4992310;28;20240;-82
2022/12/01 13:03:04;;;;;;;13.77;9.17;;;;;;;;;;4993074;28;20232;-82
2022/12/01 13:05:35;;;;;;;17.73;9.37;;;;;;;;;;4992392;28;20883;-82
2022/12/01 13:08:05;;;;;;;16.73;10.20;;;;;;;;;;4992695;28;20227;-82
2022/12/01 13:10:35;;;;;;;16.27;10.10;;;;;;;;;;4992112;28;20721;-82
2022/12/01 13:13:07;;;;;;;16.80;11.07;;;;;;;;;;4992439;28;20242;-82
2022/12/01 13:15:36;;;;;;;17.07;10.47;;;;;;;;;;4973100;28;20243;-82
2022/12/01 13:18:05;;;;;;;16.53;10.20;;;;;;;;;;4973177;28;20216;-82
2022/12/01 13:20:35;;;;;;;17.37;11.00;;;;;;;;;;4972790;28;20236;-82
2022/12/01 13:23:02;;;;;;;19.17;10.50;;;;;;;;;;4972972;28;20274;-82
2022/12/01 13:25:33;;;;;;;18.07;10.47;;;;;;;;;;4984453;28;20247;-82
2022/12/01 13:28:00;;;;;;;20.13;11.47;;;;;;;;;;4992327;28;20219;-82
2022/12/01 13:30:28;;;;;;;15.17;10.87;;;;;;;;;;4992047;28;20734;-81
2022/12/01 13:33:01;;;;;;;16.63;10.67;;;;;;;;;;4987032;28;20225;-82
2022/12/01 13:35:30;;;;;;;17.57;10.93;;;;;;;;;;4972705;28;20283;-82
2022/12/01 13:38:12;;;;;;;16.83;10.53;;;;;;;;;;4972577;28;20752;-82
2022/12/01 13:40:40;;;;;;;15.80;10.67;;;;;;;;;;4973714;28;20235;-82
2022/12/01 13:43:15;;;;;;;16.77;10.20;;;;;;;;;;4976561;28;20228;-82
2022/12/01 13:45:42;;;;;;;17.20;11.13;;;;;;;;;;4991527;28;20239;-82
2022/12/01 13:48:29;;;;;;;17.50;11.17;;;;;;;;;;4986802;28;20212;-82
2022/12/01 13:51:01;;;;;;;17.43;10.47;;;;;;;;;;4971464;28;20240;-82
2022/12/01 13:53:29;;;;;;;15.17;10.00;;;;;;;;;;4972089;28;20213;-82
2022/12/01 13:55:58;;;;;;;16.13;10.23;;;;;;;;;;4971838;28;20723;-82
2022/12/01 13:58:26;;;;;;;18.27;10.97;;;;;;;;;;4972157;28;20243;-83
2022/12/01 14:00:53;;;;;;;17.30;10.57;;;;;;;;;;4971791;28;20263;-82
2022/12/01 14:03:41;;;;;;;17.47;11.40;;;;;;;;;;4972252;28;20233;-81
2022/12/01 14:06:11;;;;;;;19.13;10.90;;;;;;;;;;4971701;28;20236;-82
2022/12/01 14:08:46;;;;;;;15.20;10.33;;;;;;;;;;4972165;28;20259;-81
2022/12/01 14:11:19;;;;;;;16.00;10.63;;;;;;;;;;4971752;28;20243;-81
2022/12/01 14:13:49;;;;;;;16.90;10.73;;;;;;;;;;4972525;28;20189;-81
2022/12/01 14:16:16;;;;;;;15.50;10.47;;;;;;;;;;4972145;28;20243;-81
2022/12/01 14:18:50;;;;;;;16.73;11.20;;;;;;;;;;4972660;28;20212;-83
2022/12/01 14:21:17;;;;;;;16.97;10.03;;;;;;;;;;4972108;28;20299;-83
2022/12/01 14:24:00;;;;;;;16.87;10.30;;;;;;;;;;4999760;28;20207;-80
2022/12/01 14:26:28;;;;;;;16.37;10.57;;;;;;;;;;4991458;28;20610;-82
2022/12/01 14:29:09;;;;;;;19.10;10.37;;;;;;;;;;4991829;28;20208;-80
2022/12/01 14:32:03;;;;;;;13.83;9.50;;;;;;;;;;4991364;28;20244;-81
2022/12/01 14:34:33;;;;;;;15.83;9.70;;;;;;;;;;4994099;28;20204;-81
2022/12/01 14:37:04;;;;;;;12.93;8.90;;;;;;;;;;4994948;28;20231;-82
2022/12/01 14:39:32;;;;;;;16.40;10.87;;;;;;;;;;4995014;28;20211;-83